Etusivu
METAR-TAF:

METAR-TAF

Lentoasemat :

Kirkkoniemi, Norja

Leveyspiiri: 69-44N, Pituuspiiri: 029-54E, korkeus merenpinnasta: 9 m

Tämänhetkinen sää

Tämä raportti tehtiin 25 minuuttia sitten, kello 00.20 UTC
Tuuli 2 kn eri suunnista
Lämpötila 0°C
Kosteus 100%
Ilmanpaine 999 hPa
Näkyvyys: 2000 m
Hajanaisia pilviä 100 ft:n korkeudessa
Hajonneita pilviä 500 ft:n korkeudessa
sumua näköpiirissä

METAR: ENKR 190020Z VRB02KT 9999 2000E VCFG SCT001 BKN005 M00/M00 Q0999 RMK WIND 731FT 26006KT

Aika: 02:45 (00:45 UTC)

Sääennuste

Tämä raportti tehtiin 1 tunti ja 45 minuuttia sitten, kello 23.00 UTC
Ennuste voimassa 19. päivästä klo 00 UTC - 19. päivään klo 09 UTC
Tuuli 8 kn lännestä/lounaasta
Näkyvyys 10 km tai enemmän
Hajanaisia pilviä 600 ft:n korkeudessa
Ajoittain
19. päivästä klo 00 UTC - 19. päivään klo 06 UTC
Hajonneita pilviä 600 ft:n korkeudessa

TAF: ENKR 182300Z 1900/1909 24008KT 9999 SCT006 TEMPO 1900/1906 BKN006

Säähavainnot ja -ennusteet yli 4000 lentoasemalta (METAR- ja TAF-raportit).

Käytössä olevat sääasemat on merkitty karttaan keltaisilla ja punaisilla pisteillä.

Aseta hiiri pisteen päälle nähdäksesi sääaseman nimen.

Klikkaa sitten nähdäksesi säähavainnot ja -ennusteet.

Kartan vaihtaminen: klikkaa mustalla rastilla varustettuja vihreitä pisteitä, niin voit zoomata sisään; viivalla varustettua vihreää pistettä, niin voit zoomata ulos tai vihreitä nuolia, niin pääset viereisille kartoille.


METAR-TAF: